FIN863 EFHK-ESGG
Flight info
| Callsign | FIN863 |
|---|---|
| Flight time | 1h 15m |
| Altitude | 38000 |
| Route | ADIVO Y365 POGOK DCT TUSNI DCT MOXAM |
| Aircraft | A320/M-SDE3FGHIRWY/LB1 |
Departure
| Time | 2026-05-06 16:53 |
|---|---|
| Airport | Helsinki Vantaa Airport (EFHK) |
Arrival
| Time | 2026-05-06 18:08 |
|---|---|
| Airport | Göteborg Landvetter Airport (ESGG) |
| Time | Latitude | Longitude | Altitude | Speed | Heading |
|---|---|---|---|---|---|
| 2026-05-06 16:31 | 60.31557 | 24.97323 | 162 ft | 0 kts | 244° |
| 2026-05-06 16:42 | 60.31565 | 24.97357 | 161 ft | 4 kts | 249° |
| 2026-05-06 16:42 | 60.31572 | 24.97408 | 161 ft | 4 kts | 266° |
| 2026-05-06 16:43 | 60.31569 | 24.97456 | 161 ft | 4 kts | 320° |
| 2026-05-06 16:43 | 60.31564 | 24.97464 | 161 ft | 0 kts | 333° |
| 2026-05-06 16:47 | 60.31565 | 24.97463 | 161 ft | 2 kts | 333° |
| 2026-05-06 16:47 | 60.31611 | 24.97415 | 161 ft | 13 kts | 332° |
| 2026-05-06 16:47 | 60.31719 | 24.97304 | 161 ft | 20 kts | 334° |
| 2026-05-06 16:48 | 60.31845 | 24.97176 | 161 ft | 21 kts | 334° |
| 2026-05-06 16:48 | 60.31976 | 24.97040 | 161 ft | 22 kts | 332° |
| 2026-05-06 16:48 | 60.32115 | 24.96885 | 161 ft | 24 kts | 330° |
| 2026-05-06 16:48 | 60.32263 | 24.96711 | 161 ft | 25 kts | 329° |
| 2026-05-06 16:49 | 60.32420 | 24.96530 | 162 ft | 27 kts | 330° |
| 2026-05-06 16:49 | 60.32586 | 24.96334 | 161 ft | 28 kts | 329° |
| 2026-05-06 16:49 | 60.32751 | 24.96148 | 161 ft | 26 kts | 331° |
| 2026-05-06 16:49 | 60.32913 | 24.95954 | 161 ft | 28 kts | 330° |
| 2026-05-06 16:50 | 60.33064 | 24.95773 | 161 ft | 24 kts | 328° |
| 2026-05-06 16:50 | 60.33184 | 24.95557 | 161 ft | 19 kts | 316° |
| 2026-05-06 16:50 | 60.33187 | 24.95347 | 161 ft | 17 kts | 229° |
| 2026-05-06 16:50 | 60.33140 | 24.95239 | 161 ft | 15 kts | 228° |
| 2026-05-06 16:51 | 60.33104 | 24.95047 | 161 ft | 16 kts | 267° |
| 2026-05-06 16:51 | 60.33112 | 24.94820 | 161 ft | 17 kts | 271° |
| 2026-05-06 16:51 | 60.33119 | 24.94581 | 165 ft | 16 kts | 274° |
| 2026-05-06 16:51 | 60.33113 | 24.94393 | 172 ft | 12 kts | 245° |
| 2026-05-06 16:52 | 60.33059 | 24.94268 | 176 ft | 13 kts | 227° |
| 2026-05-06 16:52 | 60.32885 | 24.93889 | 176 ft | 71 kts | 227° |
| 2026-05-06 16:52 | 60.32400 | 24.92817 | 161 ft | 133 kts | 227° |
| 2026-05-06 16:52 | 60.31714 | 24.91285 | 562 ft | 147 kts | 227° |
| 2026-05-06 16:53 | 60.31028 | 24.89752 | 1303 ft | 147 kts | 228° |
| 2026-05-06 16:53 | 60.30402 | 24.88025 | 1805 ft | 163 kts | 246° |
| 2026-05-06 16:53 | 60.30176 | 24.85654 | 2159 ft | 186 kts | 274° |
| 2026-05-06 16:53 | 60.30570 | 24.83006 | 2516 ft | 211 kts | 294° |
| 2026-05-06 16:54 | 60.31210 | 24.80148 | 2982 ft | 236 kts | 294° |
| 2026-05-06 16:54 | 60.31768 | 24.76919 | 3652 ft | 251 kts | 277° |
| 2026-05-06 16:54 | 60.31753 | 24.73362 | 4582 ft | 256 kts | 268° |
| 2026-05-06 16:54 | 60.31663 | 24.69756 | 5555 ft | 259 kts | 268° |
| 2026-05-06 16:55 | 60.31571 | 24.66149 | 6506 ft | 263 kts | 268° |
| 2026-05-06 16:55 | 60.31477 | 24.62449 | 7422 ft | 266 kts | 268° |
| 2026-05-06 16:55 | 60.31383 | 24.58702 | 8357 ft | 268 kts | 268° |
| 2026-05-06 16:55 | 60.31289 | 24.54921 | 9291 ft | 271 kts | 268° |
| 2026-05-06 16:56 | 60.31195 | 24.51111 | 10191 ft | 274 kts | 268° |
| 2026-05-06 16:56 | 60.31098 | 24.47115 | 10549 ft | 297 kts | 268° |
| 2026-05-06 16:56 | 60.30991 | 24.42821 | 10979 ft | 313 kts | 268° |
| 2026-05-06 16:56 | 60.30876 | 24.38412 | 11759 ft | 317 kts | 268° |
| 2026-05-06 16:57 | 60.30756 | 24.33971 | 12642 ft | 317 kts | 268° |
| 2026-05-06 16:57 | 60.30634 | 24.29515 | 13534 ft | 318 kts | 268° |
| 2026-05-06 16:57 | 60.30512 | 24.25064 | 14340 ft | 319 kts | 268° |
| 2026-05-06 16:57 | 60.30390 | 24.20593 | 15104 ft | 319 kts | 267° |
| 2026-05-06 16:58 | 60.30266 | 24.16114 | 15855 ft | 320 kts | 267° |
| 2026-05-06 16:58 | 60.30140 | 24.11626 | 16600 ft | 322 kts | 266° |
| 2026-05-06 16:58 | 60.30012 | 24.07114 | 17340 ft | 323 kts | 266° |
| 2026-05-06 16:58 | 60.29880 | 24.02577 | 18077 ft | 325 kts | 266° |
| 2026-05-06 16:59 | 60.29713 | 23.98029 | 18733 ft | 326 kts | 261° |
| 2026-05-06 16:59 | 60.29266 | 23.93549 | 19362 ft | 327 kts | 257° |
| 2026-05-06 16:59 | 60.28778 | 23.89061 | 19998 ft | 328 kts | 257° |
| 2026-05-06 16:59 | 60.28288 | 23.84561 | 20626 ft | 329 kts | 257° |
| 2026-05-06 17:00 | 60.27798 | 23.80045 | 21262 ft | 331 kts | 257° |
| 2026-05-06 17:00 | 60.27305 | 23.75504 | 21891 ft | 333 kts | 257° |
| 2026-05-06 17:00 | 60.26807 | 23.70942 | 22516 ft | 334 kts | 257° |
| 2026-05-06 17:00 | 60.26306 | 23.66363 | 23114 ft | 336 kts | 256° |
| 2026-05-06 17:01 | 60.25800 | 23.61757 | 23673 ft | 338 kts | 256° |
| 2026-05-06 17:01 | 60.25295 | 23.57181 | 24132 ft | 340 kts | 256° |
| 2026-05-06 17:01 | 60.24777 | 23.52526 | 24575 ft | 342 kts | 256° |
| 2026-05-06 17:01 | 60.24255 | 23.47852 | 25020 ft | 343 kts | 256° |
| 2026-05-06 17:02 | 60.23729 | 23.43143 | 25440 ft | 345 kts | 255° |
| 2026-05-06 17:02 | 60.23200 | 23.38409 | 25861 ft | 347 kts | 255° |
| 2026-05-06 17:02 | 60.22667 | 23.33662 | 26268 ft | 349 kts | 255° |
| 2026-05-06 17:02 | 60.22128 | 23.28887 | 26668 ft | 351 kts | 255° |
| 2026-05-06 17:03 | 60.21582 | 23.24086 | 27076 ft | 353 kts | 255° |
| 2026-05-06 17:03 | 60.21032 | 23.19261 | 27461 ft | 355 kts | 254° |
| 2026-05-06 17:03 | 60.20478 | 23.14409 | 27842 ft | 357 kts | 254° |
| 2026-05-06 17:03 | 60.19919 | 23.09529 | 28225 ft | 359 kts | 254° |
| 2026-05-06 17:04 | 60.19359 | 23.04622 | 28583 ft | 361 kts | 254° |
| 2026-05-06 17:04 | 60.18794 | 22.99689 | 28940 ft | 363 kts | 253° |
| 2026-05-06 17:04 | 60.18222 | 22.94729 | 29282 ft | 365 kts | 253° |
| 2026-05-06 17:04 | 60.17643 | 22.89748 | 29618 ft | 367 kts | 253° |
| 2026-05-06 17:05 | 60.17059 | 22.84734 | 29934 ft | 369 kts | 253° |
| 2026-05-06 17:05 | 60.16471 | 22.79699 | 30228 ft | 371 kts | 253° |
| 2026-05-06 17:05 | 60.15879 | 22.74644 | 30491 ft | 373 kts | 253° |
| 2026-05-06 17:05 | 60.15279 | 22.69573 | 30742 ft | 374 kts | 253° |
| 2026-05-06 17:06 | 60.14675 | 22.64490 | 30992 ft | 376 kts | 253° |
| 2026-05-06 17:06 | 60.14075 | 22.59451 | 31234 ft | 377 kts | 253° |
| 2026-05-06 17:06 | 60.13465 | 22.54331 | 31509 ft | 377 kts | 252° |
| 2026-05-06 17:06 | 60.12859 | 22.49229 | 31854 ft | 376 kts | 252° |
| 2026-05-06 17:07 | 60.12251 | 22.44136 | 32199 ft | 374 kts | 252° |
| 2026-05-06 17:07 | 60.11642 | 22.39065 | 32530 ft | 373 kts | 252° |
| 2026-05-06 17:07 | 60.11032 | 22.34013 | 32871 ft | 372 kts | 252° |
| 2026-05-06 17:07 | 60.10419 | 22.28972 | 33204 ft | 371 kts | 252° |
| 2026-05-06 17:08 | 60.09808 | 22.23957 | 33541 ft | 370 kts | 252° |
| 2026-05-06 17:08 | 60.09195 | 22.18946 | 33877 ft | 369 kts | 252° |
| 2026-05-06 17:08 | 60.08580 | 22.13956 | 34178 ft | 369 kts | 251° |
| 2026-05-06 17:08 | 60.07965 | 22.08975 | 34417 ft | 369 kts | 252° |
| 2026-05-06 17:09 | 60.07349 | 22.03975 | 34621 ft | 371 kts | 252° |
| 2026-05-06 17:09 | 60.06729 | 21.98955 | 34808 ft | 372 kts | 252° |
| 2026-05-06 17:09 | 60.06105 | 21.93913 | 34994 ft | 374 kts | 252° |
| 2026-05-06 17:09 | 60.05475 | 21.88855 | 35177 ft | 375 kts | 252° |
| 2026-05-06 17:10 | 60.04842 | 21.83779 | 35358 ft | 377 kts | 252° |
| 2026-05-06 17:10 | 60.04206 | 21.78690 | 35537 ft | 378 kts | 253° |
| 2026-05-06 17:10 | 60.03565 | 21.73579 | 35712 ft | 379 kts | 253° |
| 2026-05-06 17:10 | 60.02917 | 21.68454 | 35882 ft | 381 kts | 253° |
| 2026-05-06 17:11 | 60.02263 | 21.63301 | 36058 ft | 382 kts | 253° |
| 2026-05-06 17:11 | 60.01605 | 21.58149 | 36222 ft | 383 kts | 253° |
| 2026-05-06 17:11 | 60.00940 | 21.52982 | 36382 ft | 384 kts | 253° |
| 2026-05-06 17:11 | 60.00270 | 21.47808 | 36549 ft | 386 kts | 253° |
| 2026-05-06 17:12 | 59.99596 | 21.42615 | 36708 ft | 387 kts | 253° |
| 2026-05-06 17:12 | 59.98925 | 21.37404 | 36855 ft | 388 kts | 253° |
| 2026-05-06 17:12 | 59.98266 | 21.32169 | 37012 ft | 389 kts | 254° |
| 2026-05-06 17:12 | 59.97612 | 21.26920 | 37160 ft | 390 kts | 254° |
| 2026-05-06 17:13 | 59.96953 | 21.21658 | 37311 ft | 391 kts | 254° |
| 2026-05-06 17:13 | 59.96299 | 21.16448 | 37454 ft | 392 kts | 254° |
| 2026-05-06 17:13 | 59.95632 | 21.11169 | 37589 ft | 393 kts | 254° |
| 2026-05-06 17:13 | 59.94959 | 21.05873 | 37753 ft | 394 kts | 254° |
| 2026-05-06 17:14 | 59.94284 | 21.00560 | 37888 ft | 395 kts | 254° |
| 2026-05-06 17:14 | 59.93605 | 20.95252 | 38022 ft | 396 kts | 254° |
| 2026-05-06 17:14 | 59.92919 | 20.89932 | 38039 ft | 397 kts | 254° |
| 2026-05-06 17:15 | 59.91537 | 20.79257 | 38038 ft | 398 kts | 254° |
| 2026-05-06 17:15 | 59.90146 | 20.68563 | 38043 ft | 398 kts | 254° |
| 2026-05-06 17:16 | 59.88748 | 20.57893 | 38040 ft | 398 kts | 254° |
| 2026-05-06 17:16 | 59.87329 | 20.47224 | 38042 ft | 399 kts | 254° |
| 2026-05-06 17:17 | 59.85905 | 20.36563 | 38036 ft | 399 kts | 254° |
| 2026-05-06 17:17 | 59.84482 | 20.25886 | 38037 ft | 399 kts | 254° |
| 2026-05-06 17:18 | 59.83041 | 20.15216 | 38034 ft | 399 kts | 254° |
| 2026-05-06 17:18 | 59.81597 | 20.04633 | 38037 ft | 400 kts | 253° |
| 2026-05-06 17:19 | 59.80141 | 19.93972 | 38039 ft | 400 kts | 253° |
| 2026-05-06 17:19 | 59.78675 | 19.83314 | 38035 ft | 400 kts | 253° |
| 2026-05-06 17:20 | 59.77193 | 19.72670 | 38041 ft | 400 kts | 253° |
| 2026-05-06 17:20 | 59.75708 | 19.62027 | 38042 ft | 400 kts | 253° |
| 2026-05-06 17:21 | 59.74217 | 19.51382 | 38044 ft | 400 kts | 253° |
| 2026-05-06 17:21 | 59.72710 | 19.40754 | 38042 ft | 400 kts | 253° |
| 2026-05-06 17:22 | 59.71200 | 19.30140 | 38042 ft | 400 kts | 253° |
| 2026-05-06 17:22 | 59.69682 | 19.19536 | 38041 ft | 400 kts | 253° |
| 2026-05-06 17:23 | 59.68152 | 19.08927 | 38036 ft | 400 kts | 253° |
| 2026-05-06 17:23 | 59.66615 | 18.98342 | 38036 ft | 400 kts | 253° |
| 2026-05-06 17:24 | 59.65071 | 18.87755 | 38028 ft | 400 kts | 253° |
| 2026-05-06 17:24 | 59.63516 | 18.77184 | 38024 ft | 400 kts | 253° |
| 2026-05-06 17:25 | 59.61954 | 18.66616 | 38016 ft | 401 kts | 253° |
| 2026-05-06 17:25 | 59.60390 | 18.56128 | 38006 ft | 401 kts | 252° |
| 2026-05-06 17:26 | 59.58790 | 18.45510 | 37995 ft | 401 kts | 252° |
| 2026-05-06 17:26 | 59.57211 | 18.35027 | 37985 ft | 401 kts | 252° |
| 2026-05-06 17:27 | 59.55615 | 18.24487 | 37983 ft | 401 kts | 252° |
| 2026-05-06 17:27 | 59.53999 | 18.13955 | 37978 ft | 401 kts | 252° |
| 2026-05-06 17:28 | 59.52378 | 18.03421 | 37979 ft | 402 kts | 252° |
| 2026-05-06 17:28 | 59.50755 | 17.92903 | 37982 ft | 402 kts | 252° |
| 2026-05-06 17:29 | 59.49121 | 17.82383 | 38000 ft | 402 kts | 252° |
| 2026-05-06 17:29 | 59.47480 | 17.71875 | 38000 ft | 402 kts | 252° |
| 2026-05-06 17:30 | 59.45827 | 17.61383 | 37999 ft | 402 kts | 252° |
| 2026-05-06 17:30 | 59.44161 | 17.50901 | 37996 ft | 402 kts | 252° |
| 2026-05-06 17:31 | 59.42491 | 17.40422 | 37993 ft | 402 kts | 252° |
| 2026-05-06 17:31 | 59.40812 | 17.29954 | 37986 ft | 402 kts | 251° |
| 2026-05-06 17:32 | 59.39121 | 17.19491 | 37979 ft | 402 kts | 251° |
| 2026-05-06 17:32 | 59.37425 | 17.09032 | 37978 ft | 402 kts | 251° |
| 2026-05-06 17:33 | 59.35733 | 16.98664 | 37980 ft | 402 kts | 251° |
| 2026-05-06 17:33 | 59.34013 | 16.88226 | 37979 ft | 402 kts | 251° |
| 2026-05-06 17:34 | 59.32214 | 16.77853 | 37968 ft | 402 kts | 249° |
| 2026-05-06 17:34 | 59.30111 | 16.67715 | 37967 ft | 402 kts | 246° |
| 2026-05-06 17:35 | 59.27902 | 16.57655 | 37977 ft | 402 kts | 246° |
| 2026-05-06 17:35 | 59.25720 | 16.47578 | 37972 ft | 402 kts | 247° |
| 2026-05-06 17:36 | 59.22498 | 16.32440 | 37967 ft | 403 kts | 247° |
| 2026-05-06 17:36 | 59.20337 | 16.22357 | 37967 ft | 403 kts | 247° |
| 2026-05-06 17:37 | 59.18163 | 16.12289 | 37962 ft | 403 kts | 246° |
| 2026-05-06 17:37 | 59.15981 | 16.02226 | 37963 ft | 403 kts | 246° |
| 2026-05-06 17:38 | 59.13789 | 15.92182 | 37969 ft | 403 kts | 246° |
| 2026-05-06 17:38 | 59.11587 | 15.82141 | 37960 ft | 403 kts | 246° |
| 2026-05-06 17:39 | 59.09383 | 15.72101 | 37957 ft | 403 kts | 246° |
| 2026-05-06 17:39 | 59.07543 | 15.63772 | 37955 ft | 403 kts | 246° |
| 2026-05-06 17:40 | 59.05318 | 15.53754 | 37949 ft | 403 kts | 246° |
| 2026-05-06 17:40 | 59.03088 | 15.43759 | 37949 ft | 403 kts | 246° |
| 2026-05-06 17:41 | 59.00843 | 15.33779 | 37946 ft | 403 kts | 246° |
| 2026-05-06 17:41 | 58.98598 | 15.23818 | 37957 ft | 403 kts | 246° |
| 2026-05-06 17:42 | 58.96349 | 15.13862 | 37957 ft | 403 kts | 246° |
| 2026-05-06 17:42 | 58.94103 | 15.03990 | 37949 ft | 403 kts | 246° |
| 2026-05-06 17:43 | 58.91834 | 14.94070 | 37954 ft | 403 kts | 246° |
| 2026-05-06 17:43 | 58.89561 | 14.84161 | 37944 ft | 403 kts | 246° |
| 2026-05-06 17:44 | 58.87279 | 14.74252 | 37920 ft | 404 kts | 246° |
| 2026-05-06 17:44 | 58.86137 | 14.69309 | 36838 ft | 404 kts | 245° |
| 2026-05-06 17:44 | 58.84982 | 14.64325 | 35315 ft | 408 kts | 244° |
| 2026-05-06 17:45 | 58.83823 | 14.59342 | 33992 ft | 405 kts | 244° |
| 2026-05-06 17:45 | 58.82680 | 14.54433 | 32783 ft | 395 kts | 244° |
| 2026-05-06 17:45 | 58.81576 | 14.49696 | 32424 ft | 379 kts | 244° |
| 2026-05-06 17:45 | 58.80516 | 14.45154 | 32210 ft | 365 kts | 243° |
| 2026-05-06 17:46 | 58.79478 | 14.40720 | 31739 ft | 359 kts | 243° |
| 2026-05-06 17:46 | 58.78455 | 14.36372 | 31261 ft | 354 kts | 243° |
| 2026-05-06 17:46 | 58.77444 | 14.32087 | 30800 ft | 349 kts | 243° |
| 2026-05-06 17:46 | 58.76446 | 14.27869 | 30343 ft | 344 kts | 243° |
| 2026-05-06 17:47 | 58.75461 | 14.23701 | 29872 ft | 339 kts | 243° |
| 2026-05-06 17:47 | 58.74490 | 14.19603 | 29403 ft | 334 kts | 243° |
| 2026-05-06 17:47 | 58.73532 | 14.15574 | 28996 ft | 329 kts | 244° |
| 2026-05-06 17:47 | 58.72566 | 14.11514 | 28920 ft | 338 kts | 244° |
| 2026-05-06 17:48 | 58.70581 | 14.03186 | 28320 ft | 347 kts | 244° |
| 2026-05-06 17:48 | 58.69557 | 13.98908 | 27208 ft | 356 kts | 244° |
| 2026-05-06 17:48 | 58.68525 | 13.94612 | 26744 ft | 350 kts | 244° |
| 2026-05-06 17:49 | 58.67528 | 13.90460 | 26318 ft | 343 kts | 244° |
| 2026-05-06 17:49 | 58.66536 | 13.86333 | 25907 ft | 337 kts | 244° |
| 2026-05-06 17:49 | 58.65559 | 13.82279 | 25505 ft | 332 kts | 245° |
| 2026-05-06 17:49 | 58.64595 | 13.78291 | 25110 ft | 327 kts | 245° |
| 2026-05-06 17:50 | 58.63631 | 13.74318 | 24720 ft | 322 kts | 245° |
| 2026-05-06 17:50 | 58.62692 | 13.70448 | 24343 ft | 317 kts | 245° |
| 2026-05-06 17:50 | 58.61771 | 13.66658 | 24108 ft | 308 kts | 245° |
| 2026-05-06 17:50 | 58.60882 | 13.63005 | 23967 ft | 297 kts | 245° |
| 2026-05-06 17:51 | 58.60024 | 13.59476 | 23661 ft | 291 kts | 245° |
| 2026-05-06 17:51 | 58.59171 | 13.55969 | 23240 ft | 289 kts | 245° |
| 2026-05-06 17:51 | 58.58322 | 13.52483 | 22763 ft | 288 kts | 245° |
| 2026-05-06 17:51 | 58.57475 | 13.49014 | 22289 ft | 287 kts | 245° |
| 2026-05-06 17:52 | 58.56622 | 13.45547 | 21782 ft | 289 kts | 245° |
| 2026-05-06 17:52 | 58.55769 | 13.42081 | 21382 ft | 287 kts | 246° |
| 2026-05-06 17:52 | 58.54918 | 13.38630 | 21019 ft | 286 kts | 246° |
| 2026-05-06 17:52 | 58.54050 | 13.35204 | 20643 ft | 286 kts | 242° |
| 2026-05-06 17:53 | 58.52935 | 13.32056 | 20269 ft | 287 kts | 233° |
| 2026-05-06 17:53 | 58.51534 | 13.29323 | 19860 ft | 289 kts | 224° |
| 2026-05-06 17:53 | 58.49906 | 13.27030 | 19453 ft | 291 kts | 219° |
| 2026-05-06 17:53 | 58.48245 | 13.24795 | 19029 ft | 291 kts | 219° |
| 2026-05-06 17:54 | 58.46612 | 13.22586 | 18636 ft | 292 kts | 219° |
| 2026-05-06 17:54 | 58.44954 | 13.20342 | 18211 ft | 293 kts | 219° |
| 2026-05-06 17:54 | 58.43291 | 13.18096 | 17774 ft | 293 kts | 219° |
| 2026-05-06 17:54 | 58.41629 | 13.15857 | 17364 ft | 292 kts | 219° |
| 2026-05-06 17:55 | 58.39970 | 13.13621 | 16975 ft | 291 kts | 219° |
| 2026-05-06 17:55 | 58.38318 | 13.11394 | 16561 ft | 291 kts | 219° |
| 2026-05-06 17:55 | 58.36663 | 13.09173 | 16162 ft | 291 kts | 219° |
| 2026-05-06 17:55 | 58.35005 | 13.06956 | 15771 ft | 291 kts | 218° |
| 2026-05-06 17:56 | 58.33349 | 13.04745 | 15445 ft | 289 kts | 218° |
| 2026-05-06 17:56 | 58.31707 | 13.02561 | 15032 ft | 290 kts | 218° |
| 2026-05-06 17:56 | 58.30065 | 13.00376 | 14805 ft | 285 kts | 218° |
| 2026-05-06 17:56 | 58.28450 | 12.98224 | 14534 ft | 282 kts | 218° |
| 2026-05-06 17:57 | 58.26850 | 12.96091 | 14220 ft | 281 kts | 218° |
| 2026-05-06 17:57 | 58.25253 | 12.93963 | 13898 ft | 280 kts | 218° |
| 2026-05-06 17:57 | 58.23659 | 12.91843 | 13539 ft | 280 kts | 217° |
| 2026-05-06 17:57 | 58.22066 | 12.89725 | 13204 ft | 279 kts | 217° |
| 2026-05-06 17:58 | 58.20484 | 12.87626 | 12872 ft | 277 kts | 217° |
| 2026-05-06 17:58 | 58.18908 | 12.85539 | 12536 ft | 276 kts | 217° |
| 2026-05-06 17:58 | 58.17359 | 12.83490 | 12210 ft | 274 kts | 216° |
| 2026-05-06 17:58 | 58.15803 | 12.81434 | 11853 ft | 271 kts | 216° |
| 2026-05-06 17:59 | 58.14266 | 12.79404 | 11257 ft | 268 kts | 216° |
| 2026-05-06 17:59 | 58.12740 | 12.77393 | 10660 ft | 266 kts | 215° |
| 2026-05-06 17:59 | 58.11195 | 12.75354 | 9938 ft | 274 kts | 214° |
| 2026-05-06 17:59 | 58.09642 | 12.73287 | 9814 ft | 273 kts | 215° |
| 2026-05-06 18:00 | 58.08101 | 12.71187 | 9676 ft | 273 kts | 216° |
| 2026-05-06 18:00 | 58.06563 | 12.69073 | 9401 ft | 275 kts | 216° |
| 2026-05-06 18:00 | 58.04992 | 12.66910 | 8890 ft | 276 kts | 216° |
| 2026-05-06 18:00 | 58.03466 | 12.64820 | 8439 ft | 276 kts | 215° |
| 2026-05-06 18:01 | 58.01918 | 12.62706 | 8088 ft | 272 kts | 215° |
| 2026-05-06 18:01 | 58.00401 | 12.60634 | 7517 ft | 268 kts | 215° |
| 2026-05-06 18:01 | 57.98901 | 12.58586 | 6895 ft | 264 kts | 215° |
| 2026-05-06 18:01 | 57.97405 | 12.56608 | 6380 ft | 262 kts | 209° |
| 2026-05-06 18:02 | 57.95788 | 12.55060 | 5869 ft | 262 kts | 205° |
| 2026-05-06 18:02 | 57.94148 | 12.53547 | 5375 ft | 263 kts | 205° |
| 2026-05-06 18:02 | 57.92506 | 12.52034 | 5030 ft | 259 kts | 205° |
| 2026-05-06 18:02 | 57.90892 | 12.50547 | 4993 ft | 258 kts | 205° |
| 2026-05-06 18:03 | 57.89271 | 12.49054 | 4632 ft | 262 kts | 205° |
| 2026-05-06 18:03 | 57.87628 | 12.47547 | 4100 ft | 257 kts | 206° |
| 2026-05-06 18:03 | 57.86092 | 12.46134 | 3923 ft | 235 kts | 206° |
| 2026-05-06 18:03 | 57.84693 | 12.44845 | 3811 ft | 214 kts | 206° |
| 2026-05-06 18:04 | 57.83415 | 12.43667 | 3724 ft | 198 kts | 206° |
| 2026-05-06 18:04 | 57.82206 | 12.42556 | 3686 ft | 187 kts | 206° |
| 2026-05-06 18:04 | 57.81035 | 12.41479 | 3515 ft | 185 kts | 206° |
| 2026-05-06 18:04 | 57.79917 | 12.40452 | 3287 ft | 173 kts | 206° |
| 2026-05-06 18:05 | 57.78853 | 12.39475 | 3061 ft | 168 kts | 207° |
| 2026-05-06 18:05 | 57.77808 | 12.38517 | 2837 ft | 167 kts | 207° |
| 2026-05-06 18:05 | 57.76768 | 12.37563 | 2609 ft | 167 kts | 208° |
| 2026-05-06 18:05 | 57.75729 | 12.36611 | 2395 ft | 166 kts | 208° |
| 2026-05-06 18:06 | 57.74702 | 12.35671 | 2151 ft | 160 kts | 208° |
| 2026-05-06 18:06 | 57.73741 | 12.34793 | 1953 ft | 149 kts | 208° |
| 2026-05-06 18:06 | 57.72827 | 12.33956 | 1752 ft | 145 kts | 209° |
| 2026-05-06 18:06 | 57.71927 | 12.33134 | 1533 ft | 143 kts | 209° |
| 2026-05-06 18:07 | 57.71029 | 12.32312 | 1346 ft | 143 kts | 209° |
| 2026-05-06 18:07 | 57.70153 | 12.31504 | 1132 ft | 141 kts | 210° |
| 2026-05-06 18:07 | 57.69279 | 12.30696 | 946 ft | 139 kts | 210° |
| 2026-05-06 18:07 | 57.68414 | 12.29915 | 757 ft | 137 kts | 209° |
| 2026-05-06 18:08 | 57.67558 | 12.29140 | 572 ft | 136 kts | 210° |
| 2026-05-06 18:08 | 57.66773 | 12.28406 | 525 ft | 112 kts | 207° |
| 2026-05-06 18:08 | 57.66217 | 12.27911 | 520 ft | 64 kts | 206° |
| 2026-05-06 18:08 | 57.65877 | 12.27668 | 525 ft | 47 kts | 182° |
| 2026-05-06 18:09 | 57.65715 | 12.27740 | 529 ft | 10 kts | 104° |
| 2026-05-06 18:09 | 57.65738 | 12.27831 | 527 ft | 8 kts | 52° |
| 2026-05-06 18:09 | 57.65787 | 12.27873 | 527 ft | 7 kts | 25° |
| 2026-05-06 18:09 | 57.65826 | 12.27908 | 527 ft | 6 kts | 25° |
| 2026-05-06 18:10 | 57.65861 | 12.27939 | 525 ft | 6 kts | 25° |
| 2026-05-06 18:10 | 57.65906 | 12.27979 | 523 ft | 8 kts | 26° |
| 2026-05-06 18:10 | 57.65964 | 12.28032 | 521 ft | 10 kts | 27° |
| 2026-05-06 18:10 | 57.66021 | 12.28087 | 520 ft | 9 kts | 27° |
| 2026-05-06 18:11 | 57.66079 | 12.28139 | 519 ft | 10 kts | 25° |
| 2026-05-06 18:11 | 57.66164 | 12.28219 | 520 ft | 15 kts | 27° |
| 2026-05-06 18:11 | 57.66250 | 12.28296 | 521 ft | 13 kts | 24° |
| 2026-05-06 18:11 | 57.66326 | 12.28364 | 523 ft | 11 kts | 26° |
| 2026-05-06 18:12 | 57.66395 | 12.28426 | 524 ft | 14 kts | 26° |
| 2026-05-06 18:12 | 57.66502 | 12.28523 | 522 ft | 19 kts | 25° |
| 2026-05-06 18:12 | 57.66631 | 12.28642 | 519 ft | 23 kts | 26° |
| 2026-05-06 18:12 | 57.66768 | 12.28765 | 522 ft | 16 kts | 26° |
| 2026-05-06 18:13 | 57.66831 | 12.28864 | 522 ft | 11 kts | 81° |
| 2026-05-06 18:13 | 57.66802 | 12.28996 | 521 ft | 11 kts | 118° |
| 2026-05-06 18:13 | 57.66771 | 12.29108 | 524 ft | 6 kts | 117° |
| 2026-05-06 18:13 | 57.66765 | 12.29155 | 528 ft | 5 kts | 77° |
| 2026-05-06 18:14 | 57.66804 | 12.29211 | 529 ft | 5 kts | 76° |
| 2026-05-06 18:14 | 57.66791 | 12.29268 | 531 ft | 8 kts | 117° |
| 2026-05-06 18:14 | 57.66778 | 12.29316 | 531 ft | 1 kts | 116° |
| 2026-05-06 18:14 | 57.66776 | 12.29324 | 531 ft | 0 kts | 116° |
| 2026-05-06 18:15 | 57.66775 | 12.29327 | 531 ft | 0 kts | 116° |